sensor_id;sensor_type;location;lat;lon;timestamp;P1;durP1;ratioP1;P2;durP2;ratioP2
18544;SDS011;9402;51.460;7.276;2023-04-21T00:01:12;92.10;;;46.75;;
18544;SDS011;9402;51.460;7.276;2023-04-21T00:03:16;84.28;;;45.40;;
18544;SDS011;9402;51.460;7.276;2023-04-21T00:05:22;103.40;;;50.92;;
18544;SDS011;9402;51.460;7.276;2023-04-21T00:07:24;82.50;;;44.67;;
18544;SDS011;9402;51.460;7.276;2023-04-21T00:09:29;85.78;;;47.00;;
18544;SDS011;9402;51.460;7.276;2023-04-21T00:11:32;90.43;;;46.83;;
18544;SDS011;9402;51.460;7.276;2023-04-21T00:13:34;83.35;;;43.78;;
18544;SDS011;9402;51.460;7.276;2023-04-21T00:15:38;88.20;;;47.72;;
18544;SDS011;9402;51.460;7.276;2023-04-21T00:17:40;96.10;;;49.90;;
18544;SDS011;9402;51.460;7.276;2023-04-21T00:19:44;88.97;;;47.42;;
18544;SDS011;9402;51.460;7.276;2023-04-21T00:21:46;94.75;;;49.47;;
18544;SDS011;9402;51.460;7.276;2023-04-21T00:23:49;98.28;;;47.60;;
18544;SDS011;9402;51.460;7.276;2023-04-21T00:25:51;99.90;;;51.05;;
18544;SDS011;9402;51.460;7.276;2023-04-21T00:27:53;89.30;;;49.95;;
18544;SDS011;9402;51.460;7.276;2023-04-21T00:29:56;96.38;;;49.05;;
18544;SDS011;9402;51.460;7.276;2023-04-21T00:31:58;82.60;;;43.88;;
18544;SDS011;9402;51.460;7.276;2023-04-21T00:34:01;83.90;;;47.10;;
18544;SDS011;9402;51.460;7.276;2023-04-21T00:36:05;92.63;;;49.08;;
18544;SDS011;9402;51.460;7.276;2023-04-21T00:38:07;96.80;;;49.60;;
18544;SDS011;9402;51.460;7.276;2023-04-21T00:40:10;103.75;;;48.90;;
18544;SDS011;9402;51.460;7.276;2023-04-21T00:42:14;104.97;;;48.30;;
18544;SDS011;9402;51.460;7.276;2023-04-21T00:44:16;96.72;;;51.72;;
18544;SDS011;9402;51.460;7.276;2023-04-21T00:46:18;91.13;;;47.50;;
18544;SDS011;9402;51.460;7.276;2023-04-21T00:48:21;94.13;;;48.97;;
18544;SDS011;9402;51.460;7.276;2023-04-21T00:50:23;93.35;;;50.10;;
18544;SDS011;9402;51.460;7.276;2023-04-21T00:52:27;89.75;;;47.33;;
18544;SDS011;9402;51.460;7.276;2023-04-21T00:54:30;103.05;;;48.38;;
18544;SDS011;9402;51.460;7.276;2023-04-21T00:56:33;80.93;;;46.72;;
18544;SDS011;9402;51.460;7.276;2023-04-21T00:58:36;102.43;;;49.90;;
18544;SDS011;9402;51.460;7.276;2023-04-21T01:00:40;93.57;;;48.45;;
18544;SDS011;9402;51.460;7.276;2023-04-21T01:02:43;95.82;;;49.33;;
18544;SDS011;9402;51.460;7.276;2023-04-21T01:04:45;110.43;;;51.85;;
18544;SDS011;9402;51.460;7.276;2023-04-21T01:06:48;98.30;;;51.45;;
18544;SDS011;9402;51.460;7.276;2023-04-21T01:08:52;106.95;;;51.40;;
18544;SDS011;9402;51.460;7.276;2023-04-21T01:10:54;91.10;;;47.67;;
18544;SDS011;9402;51.460;7.276;2023-04-21T01:12:57;89.90;;;47.70;;
18544;SDS011;9402;51.460;7.276;2023-04-21T01:14:59;90.13;;;47.42;;
18544;SDS011;9402;51.460;7.276;2023-04-21T01:17:01;93.30;;;49.90;;
18544;SDS011;9402;51.460;7.276;2023-04-21T01:19:05;86.82;;;49.45;;
18544;SDS011;9402;51.460;7.276;2023-04-21T01:21:07;117.10;;;54.97;;
18544;SDS011;9402;51.460;7.276;2023-04-21T01:23:11;93.65;;;51.40;;
18544;SDS011;9402;51.460;7.276;2023-04-21T01:25:14;116.30;;;54.72;;
18544;SDS011;9402;51.460;7.276;2023-04-21T01:27:17;92.88;;;47.83;;
18544;SDS011;9402;51.460;7.276;2023-04-21T01:29:20;96.45;;;50.30;;
18544;SDS011;9402;51.460;7.276;2023-04-21T01:31:22;111.07;;;52.65;;
18544;SDS011;9402;51.460;7.276;2023-04-21T01:33:26;127.60;;;56.88;;
18544;SDS011;9402;51.460;7.276;2023-04-21T01:35:29;108.00;;;53.85;;
18544;SDS011;9402;51.460;7.276;2023-04-21T01:37:32;102.07;;;51.17;;
18544;SDS011;9402;51.460;7.276;2023-04-21T01:39:37;102.05;;;50.97;;
18544;SDS011;9402;51.460;7.276;2023-04-21T01:41:40;97.80;;;50.45;;
18544;SDS011;9402;51.460;7.276;2023-04-21T01:43:42;103.78;;;50.67;;
18544;SDS011;9402;51.460;7.276;2023-04-21T01:45:44;100.00;;;51.70;;
18544;SDS011;9402;51.460;7.276;2023-04-21T01:47:48;105.85;;;54.58;;
18544;SDS011;9402;51.460;7.276;2023-04-21T01:49:50;116.75;;;56.95;;
18544;SDS011;9402;51.460;7.276;2023-04-21T01:51:53;126.47;;;57.55;;
18544;SDS011;9402;51.460;7.276;2023-04-21T01:53:55;118.38;;;57.63;;
18544;SDS011;9402;51.460;7.276;2023-04-21T01:55:59;122.03;;;55.80;;
18544;SDS011;9402;51.460;7.276;2023-04-21T01:58:01;119.50;;;58.40;;
18544;SDS011;9402;51.460;7.276;2023-04-21T02:00:04;123.88;;;62.67;;
18544;SDS011;9402;51.460;7.276;2023-04-21T02:02:08;148.05;;;62.55;;
18544;SDS011;9402;51.460;7.276;2023-04-21T02:04:10;131.48;;;59.00;;
18544;SDS011;9402;51.460;7.276;2023-04-21T02:06:13;116.05;;;58.20;;
18544;SDS011;9402;51.460;7.276;2023-04-21T02:08:16;118.05;;;56.80;;
18544;SDS011;9402;51.460;7.276;2023-04-21T02:10:19;121.07;;;57.58;;
18544;SDS011;9402;51.460;7.276;2023-04-21T02:12:23;157.85;;;63.97;;
18544;SDS011;9402;51.460;7.276;2023-04-21T02:14:25;104.68;;;54.53;;
18544;SDS011;9402;51.460;7.276;2023-04-21T02:16:27;128.02;;;59.30;;
18544;SDS011;9402;51.460;7.276;2023-04-21T02:18:30;123.50;;;59.38;;
18544;SDS011;9402;51.460;7.276;2023-04-21T02:20:33;136.02;;;61.78;;
18544;SDS011;9402;51.460;7.276;2023-04-21T02:22:35;146.23;;;61.45;;
18544;SDS011;9402;51.460;7.276;2023-04-21T02:24:38;138.60;;;61.50;;
18544;SDS011;9402;51.460;7.276;2023-04-21T02:26:40;124.60;;;56.70;;
18544;SDS011;9402;51.460;7.276;2023-04-21T02:28:44;132.40;;;60.30;;
18544;SDS011;9402;51.460;7.276;2023-04-21T02:30:47;128.00;;;59.17;;
18544;SDS011;9402;51.460;7.276;2023-04-21T02:32:49;137.48;;;61.80;;
18544;SDS011;9402;51.460;7.276;2023-04-21T02:34:51;131.15;;;61.15;;
18544;SDS011;9402;51.460;7.276;2023-04-21T02:36:54;135.75;;;61.08;;
18544;SDS011;9402;51.460;7.276;2023-04-21T02:38:56;130.45;;;61.03;;
18544;SDS011;9402;51.460;7.276;2023-04-21T02:40:59;138.25;;;64.10;;
18544;SDS011;9402;51.460;7.276;2023-04-21T02:43:01;120.22;;;61.47;;
18544;SDS011;9402;51.460;7.276;2023-04-21T02:45:05;150.40;;;69.28;;
18544;SDS011;9402;51.460;7.276;2023-04-21T02:47:09;159.20;;;67.20;;
18544;SDS011;9402;51.460;7.276;2023-04-21T02:49:11;130.98;;;63.22;;
18544;SDS011;9402;51.460;7.276;2023-04-21T02:51:13;119.00;;;61.22;;
18544;SDS011;9402;51.460;7.276;2023-04-21T02:53:16;159.57;;;64.30;;
18544;SDS011;9402;51.460;7.276;2023-04-21T02:55:18;121.35;;;59.65;;
18544;SDS011;9402;51.460;7.276;2023-04-21T02:57:21;131.73;;;62.95;;
18544;SDS011;9402;51.460;7.276;2023-04-21T02:59:23;125.13;;;62.28;;
18544;SDS011;9402;51.460;7.276;2023-04-21T03:01:27;141.15;;;64.70;;
18544;SDS011;9402;51.460;7.276;2023-04-21T03:03:30;165.43;;;69.55;;
18544;SDS011;9402;51.460;7.276;2023-04-21T03:05:33;120.72;;;61.60;;
18544;SDS011;9402;51.460;7.276;2023-04-21T03:07:35;132.27;;;65.95;;
18544;SDS011;9402;51.460;7.276;2023-04-21T03:09:37;154.85;;;65.65;;
18544;SDS011;9402;51.460;7.276;2023-04-21T03:11:40;129.93;;;65.03;;
18544;SDS011;9402;51.460;7.276;2023-04-21T03:13:42;123.65;;;60.88;;
18544;SDS011;9402;51.460;7.276;2023-04-21T03:15:45;118.43;;;61.53;;
18544;SDS011;9402;51.460;7.276;2023-04-21T03:17:49;136.77;;;65.70;;
18544;SDS011;9402;51.460;7.276;2023-04-21T03:19:51;116.72;;;57.00;;
18544;SDS011;9402;51.460;7.276;2023-04-21T03:21:53;174.75;;;69.05;;
18544;SDS011;9402;51.460;7.276;2023-04-21T03:23:56;117.70;;;61.45;;
18544;SDS011;9402;51.460;7.276;2023-04-21T03:25:58;198.98;;;74.15;;
18544;SDS011;9402;51.460;7.276;2023-04-21T03:28:00;123.88;;;61.75;;
18544;SDS011;9402;51.460;7.276;2023-04-21T03:30:03;117.38;;;59.72;;
18544;SDS011;9402;51.460;7.276;2023-04-21T03:32:06;118.88;;;59.15;;
18544;SDS011;9402;51.460;7.276;2023-04-21T03:34:10;114.78;;;59.63;;
18544;SDS011;9402;51.460;7.276;2023-04-21T03:36:12;155.20;;;68.63;;
18544;SDS011;9402;51.460;7.276;2023-04-21T03:38:15;134.65;;;60.70;;
18544;SDS011;9402;51.460;7.276;2023-04-21T03:40:17;127.38;;;60.70;;
18544;SDS011;9402;51.460;7.276;2023-04-21T03:42:19;112.80;;;58.45;;
18544;SDS011;9402;51.460;7.276;2023-04-21T03:44:23;124.05;;;62.42;;
18544;SDS011;9402;51.460;7.276;2023-04-21T03:46:27;139.38;;;67.00;;
18544;SDS011;9402;51.460;7.276;2023-04-21T03:48:30;118.93;;;59.85;;
18544;SDS011;9402;51.460;7.276;2023-04-21T03:50:34;125.78;;;61.05;;
18544;SDS011;9402;51.460;7.276;2023-04-21T03:52:36;119.95;;;58.08;;
18544;SDS011;9402;51.460;7.276;2023-04-21T03:54:38;120.03;;;58.40;;
18544;SDS011;9402;51.460;7.276;2023-04-21T03:56:41;117.78;;;58.78;;
18544;SDS011;9402;51.460;7.276;2023-04-21T03:58:43;116.97;;;58.63;;
18544;SDS011;9402;51.460;7.276;2023-04-21T04:00:45;113.75;;;59.80;;
18544;SDS011;9402;51.460;7.276;2023-04-21T04:02:48;119.90;;;59.42;;
18544;SDS011;9402;51.460;7.276;2023-04-21T04:04:50;124.32;;;62.72;;
18544;SDS011;9402;51.460;7.276;2023-04-21T04:06:54;138.20;;;66.47;;
18544;SDS011;9402;51.460;7.276;2023-04-21T04:08:56;122.05;;;60.10;;
18544;SDS011;9402;51.460;7.276;2023-04-21T04:10:58;112.38;;;61.00;;
18544;SDS011;9402;51.460;7.276;2023-04-21T04:13:01;134.35;;;62.88;;
18544;SDS011;9402;51.460;7.276;2023-04-21T04:15:03;127.32;;;63.42;;
18544;SDS011;9402;51.460;7.276;2023-04-21T04:17:07;123.30;;;60.47;;
18544;SDS011;9402;51.460;7.276;2023-04-21T04:19:10;119.10;;;62.75;;
18544;SDS011;9402;51.460;7.276;2023-04-21T04:21:12;123.88;;;61.03;;
18544;SDS011;9402;51.460;7.276;2023-04-21T04:23:16;120.13;;;59.97;;
18544;SDS011;9402;51.460;7.276;2023-04-21T04:25:18;112.82;;;60.42;;
18544;SDS011;9402;51.460;7.276;2023-04-21T04:27:20;117.55;;;59.05;;
18544;SDS011;9402;51.460;7.276;2023-04-21T04:29:24;113.10;;;59.90;;
18544;SDS011;9402;51.460;7.276;2023-04-21T04:31:27;122.60;;;64.43;;
18544;SDS011;9402;51.460;7.276;2023-04-21T04:33:29;119.75;;;60.65;;
18544;SDS011;9402;51.460;7.276;2023-04-21T04:35:32;117.78;;;60.47;;
18544;SDS011;9402;51.460;7.276;2023-04-21T04:37:34;122.18;;;60.83;;
18544;SDS011;9402;51.460;7.276;2023-04-21T04:39:38;113.88;;;59.50;;
18544;SDS011;9402;51.460;7.276;2023-04-21T04:41:41;120.13;;;60.55;;
18544;SDS011;9402;51.460;7.276;2023-04-21T04:43:43;113.82;;;61.78;;
18544;SDS011;9402;51.460;7.276;2023-04-21T04:45:46;108.60;;;58.08;;
18544;SDS011;9402;51.460;7.276;2023-04-21T04:47:48;134.65;;;65.10;;
18544;SDS011;9402;51.460;7.276;2023-04-21T04:49:51;120.82;;;59.35;;
18544;SDS011;9402;51.460;7.276;2023-04-21T04:51:53;119.78;;;61.20;;
18544;SDS011;9402;51.460;7.276;2023-04-21T04:53:55;110.43;;;58.53;;
18544;SDS011;9402;51.460;7.276;2023-04-21T04:55:59;124.07;;;60.65;;
18544;SDS011;9402;51.460;7.276;2023-04-21T04:58:01;107.20;;;58.70;;
18544;SDS011;9402;51.460;7.276;2023-04-21T05:00:04;147.65;;;66.82;;
18544;SDS011;9402;51.460;7.276;2023-04-21T05:02:10;112.22;;;59.08;;
18544;SDS011;9402;51.460;7.276;2023-04-21T05:04:12;124.13;;;62.45;;
18544;SDS011;9402;51.460;7.276;2023-04-21T05:06:15;115.25;;;60.33;;
18544;SDS011;9402;51.460;7.276;2023-04-21T05:08:18;149.45;;;67.68;;
18544;SDS011;9402;51.460;7.276;2023-04-21T05:10:20;102.60;;;56.45;;
18544;SDS011;9402;51.460;7.276;2023-04-21T05:12:24;114.63;;;60.70;;
18544;SDS011;9402;51.460;7.276;2023-04-21T05:14:26;115.28;;;58.97;;
18544;SDS011;9402;51.460;7.276;2023-04-21T05:16:29;122.63;;;58.95;;
18544;SDS011;9402;51.460;7.276;2023-04-21T05:18:33;117.60;;;60.50;;
18544;SDS011;9402;51.460;7.276;2023-04-21T05:20:35;107.13;;;57.35;;
18544;SDS011;9402;51.460;7.276;2023-04-21T05:22:40;98.68;;;54.28;;
18544;SDS011;9402;51.460;7.276;2023-04-21T05:24:43;136.75;;;64.45;;
18544;SDS011;9402;51.460;7.276;2023-04-21T05:26:45;122.85;;;62.63;;
18544;SDS011;9402;51.460;7.276;2023-04-21T05:28:49;130.02;;;65.75;;
18544;SDS011;9402;51.460;7.276;2023-04-21T05:30:51;100.93;;;55.38;;
18544;SDS011;9402;51.460;7.276;2023-04-21T05:32:53;113.25;;;58.83;;
18544;SDS011;9402;51.460;7.276;2023-04-21T05:34:56;139.55;;;67.57;;
18544;SDS011;9402;51.460;7.276;2023-04-21T05:36:59;188.80;;;72.38;;
18544;SDS011;9402;51.460;7.276;2023-04-21T05:39:01;132.48;;;62.92;;
18544;SDS011;9402;51.460;7.276;2023-04-21T05:41:04;149.68;;;64.50;;
18544;SDS011;9402;51.460;7.276;2023-04-21T05:43:06;107.90;;;59.10;;
18544;SDS011;9402;51.460;7.276;2023-04-21T05:45:10;117.82;;;59.72;;
18544;SDS011;9402;51.460;7.276;2023-04-21T05:47:13;100.65;;;57.65;;
18544;SDS011;9402;51.460;7.276;2023-04-21T05:49:15;104.88;;;57.72;;
18544;SDS011;9402;51.460;7.276;2023-04-21T05:51:18;145.40;;;67.75;;
18544;SDS011;9402;51.460;7.276;2023-04-21T05:53:20;146.95;;;66.40;;
18544;SDS011;9402;51.460;7.276;2023-04-21T05:55:23;112.50;;;58.25;;
18544;SDS011;9402;51.460;7.276;2023-04-21T05:57:25;116.20;;;59.17;;
18544;SDS011;9402;51.460;7.276;2023-04-21T05:59:28;111.88;;;61.22;;
18544;SDS011;9402;51.460;7.276;2023-04-21T06:01:32;122.53;;;63.03;;
18544;SDS011;9402;51.460;7.276;2023-04-21T06:03:35;109.28;;;60.03;;
18544;SDS011;9402;51.460;7.276;2023-04-21T06:05:37;113.63;;;58.87;;
18544;SDS011;9402;51.460;7.276;2023-04-21T06:07:39;137.77;;;66.75;;
18544;SDS011;9402;51.460;7.276;2023-04-21T06:09:41;126.65;;;63.03;;
18544;SDS011;9402;51.460;7.276;2023-04-21T06:11:44;105.75;;;58.75;;
18544;SDS011;9402;51.460;7.276;2023-04-21T06:13:46;113.07;;;59.75;;
18544;SDS011;9402;51.460;7.276;2023-04-21T06:15:49;98.70;;;57.43;;
18544;SDS011;9402;51.460;7.276;2023-04-21T06:17:53;107.77;;;58.70;;
18544;SDS011;9402;51.460;7.276;2023-04-21T06:19:55;121.93;;;64.30;;
18544;SDS011;9402;51.460;7.276;2023-04-21T06:21:58;114.53;;;62.75;;
18544;SDS011;9402;51.460;7.276;2023-04-21T06:24:00;109.40;;;59.97;;
18544;SDS011;9402;51.460;7.276;2023-04-21T06:26:03;105.88;;;60.03;;
18544;SDS011;9402;51.460;7.276;2023-04-21T06:28:06;112.97;;;59.67;;
18544;SDS011;9402;51.460;7.276;2023-04-21T06:30:08;115.77;;;62.13;;
18544;SDS011;9402;51.460;7.276;2023-04-21T06:32:11;114.00;;;63.10;;
18544;SDS011;9402;51.460;7.276;2023-04-21T06:34:15;105.97;;;59.23;;
18544;SDS011;9402;51.460;7.276;2023-04-21T06:36:19;108.73;;;60.77;;
18544;SDS011;9402;51.460;7.276;2023-04-21T06:38:22;115.97;;;59.70;;
18544;SDS011;9402;51.460;7.276;2023-04-21T06:40:24;100.77;;;57.30;;
18544;SDS011;9402;51.460;7.276;2023-04-21T06:42:26;101.53;;;57.93;;
18544;SDS011;9402;51.460;7.276;2023-04-21T06:44:29;95.47;;;54.17;;
18544;SDS011;9402;51.460;7.276;2023-04-21T06:46:32;95.20;;;58.50;;
18544;SDS011;9402;51.460;7.276;2023-04-21T06:48:34;103.17;;;57.40;;
18544;SDS011;9402;51.460;7.276;2023-04-21T06:50:38;91.30;;;54.90;;
18544;SDS011;9402;51.460;7.276;2023-04-21T06:52:43;99.63;;;58.73;;
18544;SDS011;9402;51.460;7.276;2023-04-21T06:54:45;99.50;;;58.10;;
18544;SDS011;9402;51.460;7.276;2023-04-21T06:56:47;95.57;;;55.20;;
18544;SDS011;9402;51.460;7.276;2023-04-21T06:58:50;105.03;;;57.77;;
18544;SDS011;9402;51.460;7.276;2023-04-21T07:00:52;103.40;;;57.80;;
18544;SDS011;9402;51.460;7.276;2023-04-21T07:02:55;101.87;;;58.67;;
18544;SDS011;9402;51.460;7.276;2023-04-21T07:04:57;132.57;;;67.37;;
18544;SDS011;9402;51.460;7.276;2023-04-21T07:07:01;98.33;;;58.77;;
18544;SDS011;9402;51.460;7.276;2023-04-21T07:09:03;111.40;;;62.33;;
18544;SDS011;9402;51.460;7.276;2023-04-21T07:11:06;110.57;;;57.97;;
18544;SDS011;9402;51.460;7.276;2023-04-21T07:13:08;97.20;;;56.70;;
18544;SDS011;9402;51.460;7.276;2023-04-21T07:15:10;103.77;;;61.20;;
18544;SDS011;9402;51.460;7.276;2023-04-21T07:17:13;107.47;;;58.00;;
18544;SDS011;9402;51.460;7.276;2023-04-21T07:19:15;97.13;;;56.30;;
18544;SDS011;9402;51.460;7.276;2023-04-21T07:21:18;110.73;;;60.23;;
18544;SDS011;9402;51.460;7.276;2023-04-21T07:23:21;100.10;;;58.57;;
18544;SDS011;9402;51.460;7.276;2023-04-21T07:25:24;95.30;;;59.27;;
18544;SDS011;9402;51.460;7.276;2023-04-21T07:27:27;97.90;;;56.30;;
18544;SDS011;9402;51.460;7.276;2023-04-21T07:29:29;100.60;;;58.53;;
18544;SDS011;9402;51.460;7.276;2023-04-21T07:31:31;93.83;;;57.43;;
18544;SDS011;9402;51.460;7.276;2023-04-21T07:33:34;106.17;;;60.83;;
18544;SDS011;9402;51.460;7.276;2023-04-21T07:35:36;88.67;;;54.30;;
18544;SDS011;9402;51.460;7.276;2023-04-21T07:37:39;105.93;;;60.50;;
18544;SDS011;9402;51.460;7.276;2023-04-21T07:39:43;93.43;;;54.57;;
18544;SDS011;9402;51.460;7.276;2023-04-21T07:41:47;97.20;;;55.90;;
18544;SDS011;9402;51.460;7.276;2023-04-21T07:43:49;90.57;;;56.47;;
18544;SDS011;9402;51.460;7.276;2023-04-21T07:45:51;107.63;;;58.37;;
18544;SDS011;9402;51.460;7.276;2023-04-21T07:47:54;77.93;;;49.10;;
18544;SDS011;9402;51.460;7.276;2023-04-21T07:49:56;75.30;;;47.00;;
18544;SDS011;9402;51.460;7.276;2023-04-21T07:51:59;82.23;;;49.83;;
18544;SDS011;9402;51.460;7.276;2023-04-21T07:54:01;79.63;;;49.83;;
18544;SDS011;9402;51.460;7.276;2023-04-21T07:56:05;75.00;;;45.13;;
18544;SDS011;9402;51.460;7.276;2023-04-21T07:58:08;77.30;;;47.83;;
18544;SDS011;9402;51.460;7.276;2023-04-21T08:00:11;79.70;;;45.87;;
18544;SDS011;9402;51.460;7.276;2023-04-21T08:02:14;73.97;;;48.37;;
18544;SDS011;9402;51.460;7.276;2023-04-21T08:04:17;64.60;;;42.97;;
18544;SDS011;9402;51.460;7.276;2023-04-21T08:06:19;68.03;;;44.83;;
18544;SDS011;9402;51.460;7.276;2023-04-21T08:08:22;72.63;;;43.63;;
18544;SDS011;9402;51.460;7.276;2023-04-21T08:10:24;70.77;;;42.90;;
18544;SDS011;9402;51.460;7.276;2023-04-21T08:12:28;68.40;;;42.67;;
18544;SDS011;9402;51.460;7.276;2023-04-21T08:14:31;67.20;;;43.03;;
18544;SDS011;9402;51.460;7.276;2023-04-21T08:16:34;71.40;;;43.20;;
18544;SDS011;9402;51.460;7.276;2023-04-21T08:18:36;73.83;;;42.70;;
18544;SDS011;9402;51.460;7.276;2023-04-21T08:20:39;70.93;;;42.93;;
18544;SDS011;9402;51.460;7.276;2023-04-21T08:22:41;73.17;;;43.63;;
18544;SDS011;9402;51.460;7.276;2023-04-21T08:24:44;71.53;;;43.40;;
18544;SDS011;9402;51.460;7.276;2023-04-21T08:26:47;69.90;;;43.17;;
18544;SDS011;9402;51.460;7.276;2023-04-21T08:28:50;78.70;;;46.83;;
18544;SDS011;9402;51.460;7.276;2023-04-21T08:30:53;75.43;;;47.50;;
18544;SDS011;9402;51.460;7.276;2023-04-21T08:32:55;72.73;;;45.03;;
18544;SDS011;9402;51.460;7.276;2023-04-21T08:34:58;73.63;;;44.73;;
18544;SDS011;9402;51.460;7.276;2023-04-21T08:37:00;73.30;;;47.03;;
18544;SDS011;9402;51.460;7.276;2023-04-21T08:39:03;74.93;;;45.40;;
18544;SDS011;9402;51.460;7.276;2023-04-21T08:41:06;72.50;;;43.20;;
18544;SDS011;9402;51.460;7.276;2023-04-21T08:43:08;68.67;;;42.67;;
18544;SDS011;9402;51.460;7.276;2023-04-21T08:45:12;76.30;;;43.97;;
18544;SDS011;9402;51.460;7.276;2023-04-21T08:47:15;68.53;;;44.53;;
18544;SDS011;9402;51.460;7.276;2023-04-21T08:49:19;67.10;;;42.40;;
18544;SDS011;9402;51.460;7.276;2023-04-21T08:51:22;67.23;;;43.47;;
18544;SDS011;9402;51.460;7.276;2023-04-21T08:53:25;72.97;;;43.90;;
18544;SDS011;9402;51.460;7.276;2023-04-21T08:55:27;71.63;;;41.80;;
18544;SDS011;9402;51.460;7.276;2023-04-21T08:57:30;69.00;;;43.37;;
18544;SDS011;9402;51.460;7.276;2023-04-21T08:59:33;64.33;;;39.93;;
18544;SDS011;9402;51.460;7.276;2023-04-21T09:04:14;62.87;;;40.07;;
18544;SDS011;9402;51.460;7.276;2023-04-21T09:06:17;67.00;;;39.70;;
18544;SDS011;9402;51.460;7.276;2023-04-21T09:08:20;70.63;;;44.10;;
18544;SDS011;9402;51.460;7.276;2023-04-21T09:10:22;70.90;;;45.47;;
18544;SDS011;9402;51.460;7.276;2023-04-21T09:12:26;69.07;;;42.80;;
18544;SDS011;9402;51.460;7.276;2023-04-21T09:14:30;71.67;;;44.20;;
18544;SDS011;9402;51.460;7.276;2023-04-21T09:16:33;68.43;;;44.13;;
18544;SDS011;9402;51.460;7.276;2023-04-21T09:18:37;66.73;;;42.50;;
18544;SDS011;9402;51.460;7.276;2023-04-21T09:20:41;66.53;;;43.67;;
18544;SDS011;9402;51.460;7.276;2023-04-21T09:22:46;66.50;;;42.20;;
18544;SDS011;9402;51.460;7.276;2023-04-21T09:24:55;69.13;;;44.20;;
18544;SDS011;9402;51.460;7.276;2023-04-21T09:26:59;68.67;;;41.30;;
18544;SDS011;9402;51.460;7.276;2023-04-21T09:29:04;71.73;;;42.57;;
18544;SDS011;9402;51.460;7.276;2023-04-21T09:31:11;71.17;;;45.10;;
18544;SDS011;9402;51.460;7.276;2023-04-21T09:33:15;73.90;;;45.37;;
18544;SDS011;9402;51.460;7.276;2023-04-21T09:35:19;71.53;;;42.37;;
18544;SDS011;9402;51.460;7.276;2023-04-21T09:37:22;68.03;;;43.77;;
18544;SDS011;9402;51.460;7.276;2023-04-21T09:39:24;68.83;;;42.47;;
18544;SDS011;9402;51.460;7.276;2023-04-21T09:41:27;67.50;;;44.20;;
18544;SDS011;9402;51.460;7.276;2023-04-21T09:43:30;71.40;;;44.30;;
18544;SDS011;9402;51.460;7.276;2023-04-21T09:45:32;71.00;;;43.30;;
18544;SDS011;9402;51.460;7.276;2023-04-21T09:47:35;65.70;;;42.70;;
18544;SDS011;9402;51.460;7.276;2023-04-21T09:49:41;77.13;;;42.97;;
18544;SDS011;9402;51.460;7.276;2023-04-21T09:51:45;66.10;;;41.80;;
18544;SDS011;9402;51.460;7.276;2023-04-21T09:53:48;62.20;;;42.13;;
18544;SDS011;9402;51.460;7.276;2023-04-21T09:55:52;65.57;;;42.67;;
18544;SDS011;9402;51.460;7.276;2023-04-21T09:57:56;69.43;;;38.77;;
18544;SDS011;9402;51.460;7.276;2023-04-21T10:00:00;61.03;;;40.50;;
18544;SDS011;9402;51.460;7.276;2023-04-21T10:02:05;65.53;;;41.37;;
18544;SDS011;9402;51.460;7.276;2023-04-21T10:04:08;67.67;;;42.03;;
18544;SDS011;9402;51.460;7.276;2023-04-21T10:06:11;73.30;;;42.30;;
18544;SDS011;9402;51.460;7.276;2023-04-21T10:08:15;64.30;;;40.83;;
18544;SDS011;9402;51.460;7.276;2023-04-21T10:10:20;64.80;;;38.63;;
18544;SDS011;9402;51.460;7.276;2023-04-21T10:12:25;66.73;;;40.93;;
18544;SDS011;9402;51.460;7.276;2023-04-21T10:14:28;71.83;;;40.23;;
18544;SDS011;9402;51.460;7.276;2023-04-21T10:16:30;72.03;;;40.90;;
18544;SDS011;9402;51.460;7.276;2023-04-21T10:18:37;61.87;;;38.83;;
18544;SDS011;9402;51.460;7.276;2023-04-21T10:20:49;70.10;;;40.17;;
18544;SDS011;9402;51.460;7.276;2023-04-21T10:22:56;71.50;;;40.97;;
18544;SDS011;9402;51.460;7.276;2023-04-21T10:25:00;63.50;;;37.50;;
18544;SDS011;9402;51.460;7.276;2023-04-21T10:27:03;63.00;;;40.37;;
18544;SDS011;9402;51.460;7.276;2023-04-21T10:29:06;58.70;;;37.43;;
18544;SDS011;9402;51.460;7.276;2023-04-21T10:33:33;62.20;;;37.60;;
18544;SDS011;9402;51.460;7.276;2023-04-21T10:38:00;70.43;;;38.00;;
18544;SDS011;9402;51.460;7.276;2023-04-21T10:40:04;59.10;;;38.73;;
18544;SDS011;9402;51.460;7.276;2023-04-21T10:42:20;59.77;;;36.30;;
18544;SDS011;9402;51.460;7.276;2023-04-21T10:44:23;60.27;;;36.17;;
18544;SDS011;9402;51.460;7.276;2023-04-21T10:46:33;62.43;;;38.13;;
18544;SDS011;9402;51.460;7.276;2023-04-21T10:48:36;61.70;;;36.97;;
18544;SDS011;9402;51.460;7.276;2023-04-21T10:50:38;60.57;;;38.03;;
18544;SDS011;9402;51.460;7.276;2023-04-21T10:52:44;59.67;;;36.50;;
18544;SDS011;9402;51.460;7.276;2023-04-21T10:55:05;54.07;;;33.83;;
18544;SDS011;9402;51.460;7.276;2023-04-21T10:57:11;55.23;;;33.10;;
18544;SDS011;9402;51.460;7.276;2023-04-21T10:59:14;55.97;;;34.53;;
18544;SDS011;9402;51.460;7.276;2023-04-21T11:01:17;55.23;;;35.40;;
18544;SDS011;9402;51.460;7.276;2023-04-21T11:03:19;56.17;;;36.33;;
18544;SDS011;9402;51.460;7.276;2023-04-21T11:05:32;59.93;;;37.27;;
18544;SDS011;9402;51.460;7.276;2023-04-21T11:07:37;57.00;;;33.23;;
18544;SDS011;9402;51.460;7.276;2023-04-21T11:09:40;54.87;;;32.97;;
18544;SDS011;9402;51.460;7.276;2023-04-21T11:11:44;55.67;;;33.63;;
18544;SDS011;9402;51.460;7.276;2023-04-21T11:13:46;54.30;;;33.33;;
18544;SDS011;9402;51.460;7.276;2023-04-21T11:15:58;52.13;;;32.63;;
18544;SDS011;9402;51.460;7.276;2023-04-21T11:18:02;54.27;;;33.07;;
18544;SDS011;9402;51.460;7.276;2023-04-21T11:20:06;52.40;;;33.53;;
18544;SDS011;9402;51.460;7.276;2023-04-21T11:22:09;53.90;;;32.77;;
18544;SDS011;9402;51.460;7.276;2023-04-21T11:24:11;51.00;;;30.43;;
18544;SDS011;9402;51.460;7.276;2023-04-21T11:26:14;56.43;;;32.27;;
18544;SDS011;9402;51.460;7.276;2023-04-21T11:28:20;49.93;;;28.77;;
18544;SDS011;9402;51.460;7.276;2023-04-21T11:30:29;44.97;;;29.60;;
18544;SDS011;9402;51.460;7.276;2023-04-21T11:32:33;46.47;;;30.07;;
18544;SDS011;9402;51.460;7.276;2023-04-21T11:34:35;49.73;;;28.30;;
18544;SDS011;9402;51.460;7.276;2023-04-21T11:36:38;49.07;;;30.40;;
18544;SDS011;9402;51.460;7.276;2023-04-21T11:38:42;55.13;;;30.27;;
18544;SDS011;9402;51.460;7.276;2023-04-21T11:40:45;45.63;;;27.27;;
18544;SDS011;9402;51.460;7.276;2023-04-21T11:42:48;48.47;;;28.13;;
18544;SDS011;9402;51.460;7.276;2023-04-21T11:44:52;49.97;;;30.20;;
18544;SDS011;9402;51.460;7.276;2023-04-21T11:46:55;47.80;;;29.57;;
18544;SDS011;9402;51.460;7.276;2023-04-21T11:48:58;48.10;;;28.50;;
18544;SDS011;9402;51.460;7.276;2023-04-21T11:51:01;43.13;;;27.63;;
18544;SDS011;9402;51.460;7.276;2023-04-21T11:53:03;46.03;;;29.87;;
18544;SDS011;9402;51.460;7.276;2023-04-21T11:55:10;50.47;;;30.53;;
18544;SDS011;9402;51.460;7.276;2023-04-21T11:57:16;54.27;;;30.90;;
18544;SDS011;9402;51.460;7.276;2023-04-21T11:59:21;48.20;;;28.93;;
18544;SDS011;9402;51.460;7.276;2023-04-21T12:01:26;48.13;;;29.33;;
18544;SDS011;9402;51.460;7.276;2023-04-21T12:03:29;51.30;;;30.00;;
18544;SDS011;9402;51.460;7.276;2023-04-21T12:05:33;48.50;;;28.20;;
18544;SDS011;9402;51.460;7.276;2023-04-21T12:07:36;50.57;;;28.57;;
18544;SDS011;9402;51.460;7.276;2023-04-21T12:09:41;48.17;;;29.20;;
18544;SDS011;9402;51.460;7.276;2023-04-21T12:11:45;47.50;;;29.67;;
18544;SDS011;9402;51.460;7.276;2023-04-21T12:13:49;42.30;;;27.37;;